Airport View

Enter AWOS ICAO identifier for current METAR.

ex. KFNL

KEMV 290300Z AUTO 15003KT 10SM SCT080 BKN100 21/20 A2993 RMK AO2 T02120197

29 Sep 2020 02:59

Frequency: 124.175

Phone: 434-634-0656

Other Area AWOS: KLVL - KIXA - KAVC - KASJ

TAF KFAF 281800Z 2818/2924 VRB06KT 9999 FEW050 QNH2986INS BECMG 2902/2903 VRB06KT 9999 SCT018 SCT080 QNH2987INS BECMG 2908/2909 18009KT 6000 -SHRA SCT025 OVC030 QNH2987INS BECMG 2913/2914 18012KT 4800 -SHRA OVC005 QNH2977INS TEMPO 2919/2924 19015G30KT 2400 -TSRA OVC015CB TX27/2819Z TN15/2910Z LAST NO AMDS AFT 2903 NEXT 2910